Time;durP1;ratioP1;P1;durP2;ratioP2;P2;SDS_P1;SDS_P2;PMS_P1;PMS_P2;Temp;Humidity;BMP_temperature;BMP_pressure;BME280_temperature;BME280_humidity;BME280_pressure;Samples;Min_cycle;Max_cycle;Signal;HPM_P1;HPM_P2
2022/07/27 04:00:48;;;;;;;1.90;1.40;;;14.00;99.90;;;;;;5841197;23;20503;-70
2022/07/27 04:03:14;;;;;;;3.47;1.80;;;13.90;99.90;;;;;;5006103;28;20492;-69
2022/07/27 04:05:41;;;;;;;4.10;1.80;;;14.00;99.90;;;;;;5008068;28;20485;-69
2022/07/27 04:08:07;;;;;;;2.87;1.40;;;14.00;99.90;;;;;;5008434;28;20220;-69
2022/07/27 04:10:34;;;;;;;1.63;1.47;;;14.10;99.90;;;;;;5004559;28;20485;-69
2022/07/27 04:13:01;;;;;;;3.23;1.50;;;14.10;99.90;;;;;;4989738;28;20879;-69
2022/07/27 04:15:28;;;;;;;1.70;1.60;;;14.10;99.90;;;;;;4989292;28;20462;-69
2022/07/27 04:17:56;;;;;;;2.40;1.30;;;14.20;99.90;;;;;;4990981;28;20468;-69
2022/07/27 04:20:22;;;;;;;4.47;1.50;;;14.20;99.90;;;;;;4990147;28;21053;-69
2022/07/27 04:22:49;;;;;;;2.63;1.50;;;14.30;99.90;;;;;;4989562;28;20494;-69
2022/07/27 04:25:16;;;;;;;3.03;1.30;;;14.30;99.90;;;;;;4984426;28;20532;-69
2022/07/27 04:27:42;;;;;;;3.00;1.30;;;14.40;99.90;;;;;;4989794;28;20949;-69
2022/07/27 04:30:10;;;;;;;3.80;1.40;;;14.50;99.90;;;;;;4988481;28;20481;-69
2022/07/27 04:32:37;;;;;;;2.57;1.23;;;14.40;99.90;;;;;;4990564;28;20465;-70
2022/07/27 04:35:06;;;;;;;3.97;1.50;;;14.50;99.90;;;;;;4987169;28;20846;-69
2022/07/27 04:37:33;;;;;;;4.90;1.47;;;14.50;99.90;;;;;;4989585;28;20513;-69
2022/07/27 04:40:00;;;;;;;2.90;1.33;;;14.50;99.90;;;;;;4988649;28;20560;-70
2022/07/27 04:42:27;;;;;;;1.30;1.20;;;14.50;99.90;;;;;;4990419;28;20593;-70
2022/07/27 04:44:54;;;;;;;1.37;1.23;;;14.60;99.90;;;;;;4986701;28;20958;-70
2022/07/27 04:47:20;;;;;;;1.50;1.40;;;14.60;99.90;;;;;;4990457;28;20539;-70
2022/07/27 04:49:47;;;;;;;4.40;1.50;;;14.60;99.90;;;;;;4988125;28;20968;-70
2022/07/27 04:52:16;;;;;;;1.40;1.10;;;14.60;99.90;;;;;;4990138;28;20998;-69
2022/07/27 04:54:43;;;;;;;2.50;1.90;;;14.60;99.90;;;;;;4989078;28;20471;-68
2022/07/27 04:57:09;;;;;;;5.40;2.00;;;14.70;99.90;;;;;;4984840;28;20478;-68
2022/07/27 04:59:36;;;;;;;1.40;1.13;;;14.70;99.90;;;;;;4989810;28;20461;-69
2022/07/27 05:02:03;;;;;;;1.10;1.00;;;14.70;99.90;;;;;;4990985;28;20565;-69
2022/07/27 05:04:30;;;;;;;1.27;1.27;;;14.70;99.90;;;;;;4991695;28;20472;-69
2022/07/27 05:06:56;;;;;;;3.00;1.20;;;14.80;99.90;;;;;;4990614;28;20473;-69
2022/07/27 05:09:24;;;;;;;2.17;1.57;;;14.80;99.90;;;;;;4992872;28;20978;-69
2022/07/27 05:11:52;;;;;;;1.60;1.60;;;14.80;99.90;;;;;;4993370;28;20475;-70
2022/07/27 05:14:18;;;;;;;1.57;1.47;;;14.80;99.90;;;;;;4991563;28;20506;-69
2022/07/27 05:16:45;;;;;;;3.93;1.77;;;14.90;99.90;;;;;;4993708;28;20827;-69
2022/07/27 05:19:12;;;;;;;1.40;1.30;;;14.90;99.90;;;;;;4991620;28;20536;-69
2022/07/27 05:21:39;;;;;;;3.73;1.33;;;14.90;99.90;;;;;;4993836;28;20590;-69
2022/07/27 05:24:06;;;;;;;1.13;1.00;;;15.00;99.90;;;;;;4990216;28;20485;-69
2022/07/27 05:26:34;;;;;;;2.20;1.53;;;15.00;99.90;;;;;;4992553;28;20473;-69
2022/07/27 05:29:01;;;;;;;3.60;1.80;;;15.20;99.90;;;;;;4989653;28;20478;-69
2022/07/27 05:31:28;;;;;;;3.50;1.30;;;15.20;99.90;;;;;;4992462;28;20576;-70
2022/07/27 05:33:54;;;;;;;5.70;1.13;;;15.30;99.90;;;;;;4989388;28;20553;-69
2022/07/27 05:36:21;;;;;;;2.53;2.20;;;15.30;99.90;;;;;;4992914;28;20467;-69
2022/07/27 05:38:48;;;;;;;4.27;1.67;;;15.40;99.90;;;;;;4990418;28;20531;-69
2022/07/27 05:41:14;;;;;;;3.33;1.50;;;15.40;99.90;;;;;;4990045;28;20493;-69
2022/07/27 05:43:43;;;;;;;1.40;1.40;;;15.40;99.90;;;;;;4990136;28;20492;-69
2022/07/27 05:46:10;;;;;;;6.93;1.90;;;15.50;99.90;;;;;;4991872;28;20550;-70
2022/07/27 05:48:36;;;;;;;1.67;1.40;;;15.40;99.90;;;;;;4991616;28;20503;-70
2022/07/27 05:51:03;;;;;;;1.57;1.47;;;15.50;99.90;;;;;;4990590;28;21095;-68
2022/07/27 05:53:30;;;;;;;2.13;2.03;;;15.60;99.90;;;;;;4990619;28;20469;-68
2022/07/27 05:55:56;;;;;;;1.30;1.20;;;15.60;99.90;;;;;;4991905;28;20476;-68
2022/07/27 05:58:23;;;;;;;2.60;2.30;;;15.70;99.90;;;;;;4989626;28;21155;-68
2022/07/27 06:00:51;;;;;;;5.20;1.73;;;16.10;99.90;;;;;;4990178;28;20500;-68
2022/07/27 06:03:18;;;;;;;1.30;1.30;;;16.50;99.90;;;;;;4988889;28;21064;-67
2022/07/27 06:05:44;;;;;;;4.17;1.10;;;16.80;99.90;;;;;;4991285;28;20539;-68
2022/07/27 06:08:10;;;;;;;2.53;1.60;;;17.30;99.90;;;;;;4991180;28;20470;-68
2022/07/27 06:10:39;;;;;;;2.57;1.10;;;18.10;99.90;;;;;;4992051;28;20912;-68
2022/07/27 06:13:08;;;;;;;1.17;1.17;;;18.40;99.90;;;;;;4990074;28;20526;-68
2022/07/27 06:15:35;;;;;;;4.03;1.80;;;18.40;99.90;;;;;;4990909;28;20513;-68
2022/07/27 06:18:05;;;;;;;1.50;1.10;;;18.40;99.90;;;;;;4990912;28;20490;-69
2022/07/27 06:20:32;;;;;;;1.00;0.93;;;18.30;99.90;;;;;;4992084;28;20586;-68
2022/07/27 06:23:02;;;;;;;1.40;1.30;;;18.10;99.90;;;;;;4990201;28;20564;-68
2022/07/27 06:25:32;;;;;;;1.90;1.33;;;18.10;99.90;;;;;;4988039;28;21013;-68
2022/07/27 06:27:59;;;;;;;3.00;1.33;;;18.10;99.90;;;;;;4985373;28;20837;-68
2022/07/27 06:30:25;;;;;;;2.40;1.70;;;18.20;99.90;;;;;;4990209;28;20470;-68
2022/07/27 06:32:52;;;;;;;1.53;1.43;;;18.00;99.90;;;;;;4990013;28;20465;-68
2022/07/27 06:35:22;;;;;;;5.40;1.10;;;18.10;99.90;;;;;;4989690;28;20866;-68
2022/07/27 06:37:51;;;;;;;5.27;1.60;;;18.30;99.90;;;;;;4990113;28;20474;-68
2022/07/27 06:40:18;;;;;;;1.30;1.20;;;19.00;99.90;;;;;;4985887;28;20562;-68
2022/07/27 06:42:45;;;;;;;2.67;1.03;;;20.10;99.90;;;;;;4989964;28;20484;-68
2022/07/27 06:45:12;;;;;;;1.40;1.27;;;21.40;99.90;;;;;;4989594;28;20471;-67
2022/07/27 06:47:40;;;;;;;0.80;0.80;;;22.30;99.90;;;;;;4988091;28;20546;-68
2022/07/27 06:50:08;;;;;;;1.40;0.90;;;21.90;99.90;;;;;;4987479;28;20472;-68
2022/07/27 06:52:36;;;;;;;1.33;1.20;;;21.40;99.90;;;;;;4989099;28;20499;-68
2022/07/27 06:55:03;;;;;;;1.77;0.97;;;21.70;99.90;;;;;;4989985;28;20526;-68
2022/07/27 06:57:29;;;;;;;1.00;1.00;;;22.30;99.90;;;;;;4990488;28;20534;-68
2022/07/27 06:59:56;;;;;;;1.27;1.13;;;22.90;99.90;;;;;;4989786;28;20952;-68
2022/07/27 07:02:23;;;;;;;1.40;1.30;;;23.30;99.90;;;;;;4989979;28;20502;-68
2022/07/27 07:04:49;;;;;;;2.63;1.07;;;23.70;99.90;;;;;;4988397;28;20951;-68
2022/07/27 07:07:16;;;;;;;4.47;1.30;;;23.90;99.90;;;;;;4989999;28;20471;-68
2022/07/27 07:09:44;;;;;;;1.20;1.10;;;24.50;99.90;;;;;;4987359;28;20475;-68
2022/07/27 07:12:11;;;;;;;0.90;0.90;;;23.90;99.90;;;;;;4986288;28;20562;-68
2022/07/27 07:14:37;;;;;;;3.80;1.20;;;23.20;99.90;;;;;;4991068;28;20817;-68
2022/07/27 07:17:04;;;;;;;2.63;1.03;;;22.40;99.90;;;;;;4990793;28;20478;-69
2022/07/27 07:19:31;;;;;;;3.13;1.57;;;21.50;99.90;;;;;;4988704;28;20482;-68
2022/07/27 07:21:57;;;;;;;3.43;1.30;;;20.90;99.90;;;;;;4988482;28;20903;-68
2022/07/27 07:24:24;;;;;;;1.37;1.00;;;20.50;99.90;;;;;;4986125;28;20512;-68
2022/07/27 07:26:52;;;;;;;3.43;1.20;;;20.40;99.90;;;;;;4986405;28;20535;-68
2022/07/27 07:29:19;;;;;;;3.60;1.20;;;20.20;99.90;;;;;;4989162;28;20477;-68
2022/07/27 07:31:46;;;;;;;3.90;1.47;;;20.00;99.90;;;;;;4987547;28;20492;-68
2022/07/27 07:34:12;;;;;;;4.30;1.30;;;19.70;99.90;;;;;;4989951;28;20517;-68
2022/07/27 07:36:39;;;;;;;1.67;0.93;;;19.60;99.90;;;;;;4987169;28;20858;-69
2022/07/27 07:39:06;;;;;;;1.90;0.90;;;19.30;99.90;;;;;;4988526;28;20477;-69
2022/07/27 07:41:35;;;;;;;2.63;0.87;;;19.20;99.90;;;;;;4990108;28;20891;-69
2022/07/27 07:44:03;;;;;;;1.90;1.40;;;19.30;99.90;;;;;;4989105;28;20490;-72
2022/07/27 07:46:30;;;;;;;1.67;1.07;;;19.30;99.90;;;;;;4985729;28;20882;-69
2022/07/27 07:48:57;;;;;;;4.93;1.60;;;19.30;99.90;;;;;;4991324;28;20471;-69
2022/07/27 07:51:23;;;;;;;1.63;1.60;;;19.50;99.90;;;;;;4990800;28;20486;-69
2022/07/27 07:53:50;;;;;;;2.50;1.17;;;19.80;99.90;;;;;;4990929;28;20518;-67
2022/07/27 07:56:17;;;;;;;2.83;1.27;;;19.80;99.90;;;;;;4990651;28;20619;-68
2022/07/27 07:58:43;;;;;;;6.13;1.47;;;19.50;99.90;;;;;;4988666;28;20862;-68
2022/07/27 08:01:12;;;;;;;1.90;0.93;;;19.40;99.90;;;;;;4990417;28;20482;-69
2022/07/27 08:03:38;;;;;;;3.27;1.20;;;19.50;99.90;;;;;;4990673;28;20502;-69
2022/07/27 08:06:07;;;;;;;2.43;0.97;;;19.20;99.90;;;;;;4990661;28;20462;-68
2022/07/27 08:08:33;;;;;;;2.60;1.50;;;18.60;99.90;;;;;;4989947;28;20500;-69
2022/07/27 08:11:00;;;;;;;4.73;0.97;;;18.40;99.90;;;;;;4990939;28;20499;-68
2022/07/27 08:13:27;;;;;;;3.27;1.30;;;18.20;99.90;;;;;;4990472;28;20518;-68
2022/07/27 08:15:53;;;;;;;2.80;1.10;;;18.10;99.90;;;;;;4989912;28;20473;-68
2022/07/27 08:18:21;;;;;;;1.00;0.90;;;17.90;99.90;;;;;;4989678;28;20592;-68
2022/07/27 08:20:49;;;;;;;1.53;0.90;;;17.70;99.90;;;;;;4989995;28;20490;-67
2022/07/27 08:23:15;;;;;;;1.00;1.00;;;17.70;99.90;;;;;;4990732;28;20579;-67
2022/07/27 08:25:42;;;;;;;1.87;1.00;;;17.80;99.90;;;;;;4990778;28;20464;-67
2022/07/27 08:28:09;;;;;;;4.63;1.30;;;17.90;99.90;;;;;;4989732;28;20593;-68
2022/07/27 08:30:35;;;;;;;1.60;0.90;;;18.20;99.90;;;;;;4990124;28;20487;-68
2022/07/27 08:33:04;;;;;;;1.23;1.20;;;18.50;99.90;;;;;;4990676;28;20519;-67
2022/07/27 08:35:34;;;;;;;4.00;1.43;;;18.80;99.90;;;;;;4990168;28;20897;-68
2022/07/27 08:38:04;;;;;;;1.47;1.13;;;19.10;99.90;;;;;;4993507;28;20958;-68
2022/07/27 08:40:31;;;;;;;1.00;1.00;;;19.30;99.90;;;;;;4994707;28;20885;-68
2022/07/27 08:43:00;;;;;;;1.53;1.00;;;19.30;99.90;;;;;;4994733;28;20490;-68
2022/07/27 08:45:28;;;;;;;1.37;0.80;;;19.40;99.90;;;;;;4993888;28;20481;-68
2022/07/27 08:47:55;;;;;;;1.03;0.93;;;19.50;99.90;;;;;;4993356;28;20872;-68
2022/07/27 08:50:23;;;;;;;3.50;1.10;;;19.50;99.90;;;;;;4993956;28;20460;-68
2022/07/27 08:52:58;;;;;;;4.37;1.17;;;19.50;99.90;;;;;;4994695;28;20478;-68
2022/07/27 08:55:26;;;;;;;2.57;0.90;;;19.40;99.90;;;;;;4994209;28;20547;-68
2022/07/27 08:57:53;;;;;;;1.20;1.00;;;19.50;99.90;;;;;;4994096;28;20473;-68
2022/07/27 09:00:20;;;;;;;1.30;1.20;;;19.40;99.90;;;;;;4993423;28;20462;-68
2022/07/27 09:02:47;;;;;;;1.63;1.17;;;19.50;99.90;;;;;;4994153;28;20470;-68
2022/07/27 09:05:14;;;;;;;1.27;1.17;;;19.50;99.90;;;;;;4993811;28;20972;-68
2022/07/27 09:07:41;;;;;;;2.40;0.97;;;19.50;99.90;;;;;;4992616;28;20470;-68
2022/07/27 09:10:10;;;;;;;1.53;1.50;;;19.30;99.90;;;;;;4993245;28;20478;-68
2022/07/27 09:12:38;;;;;;;1.50;1.00;;;19.40;99.90;;;;;;4994227;28;20544;-68
2022/07/27 09:15:10;;;;;;;3.80;1.57;;;19.60;99.90;;;;;;4993520;28;20457;-68
2022/07/27 09:17:38;;;;;;;1.97;1.57;;;19.90;99.90;;;;;;4992784;28;20470;-68
2022/07/27 09:20:08;;;;;;;1.37;1.37;;;19.90;99.90;;;;;;4987678;28;20470;-67
2022/07/27 09:22:43;;;;;;;1.50;0.87;;;19.80;99.90;;;;;;4993394;28;20505;-68
2022/07/27 09:25:13;;;;;;;1.77;1.00;;;19.80;99.90;;;;;;4991364;28;20495;-69
2022/07/27 09:27:40;;;;;;;1.97;1.33;;;20.00;99.90;;;;;;4992736;28;20474;-68
2022/07/27 09:30:09;;;;;;;1.17;1.00;;;20.10;99.90;;;;;;4993561;28;20469;-68
2022/07/27 09:32:37;;;;;;;1.40;0.90;;;20.20;99.90;;;;;;4993429;28;20483;-69
2022/07/27 09:35:17;;;;;;;3.80;1.20;;;20.10;99.90;;;;;;4993342;28;20466;-69
2022/07/27 09:37:44;;;;;;;1.80;1.40;;;19.90;99.90;;;;;;4993162;28;20469;-69
2022/07/27 09:40:14;;;;;;;1.10;1.10;;;19.90;99.90;;;;;;4992687;28;21031;-69
2022/07/27 09:42:40;;;;;;;1.30;1.10;;;20.10;99.90;;;;;;4986261;28;20481;-68
2022/07/27 09:45:29;;;;;;;1.17;1.17;;;20.30;99.90;;;;;;4992977;28;20497;-68
2022/07/27 09:48:14;;;;;;;6.20;1.23;;;20.70;99.90;;;;;;4991267;28;20545;-67
2022/07/27 09:50:43;;;;;;;4.53;1.30;;;20.90;99.90;;;;;;4993019;28;20994;-67
2022/07/27 09:53:20;;;;;;;2.60;1.50;;;20.80;99.90;;;;;;4993130;28;20470;-67
2022/07/27 09:55:57;;;;;;;1.57;1.23;;;20.70;99.90;;;;;;4993446;28;20475;-68
2022/07/27 09:58:40;;;;;;;2.40;1.50;;;20.60;99.90;;;;;;4991628;28;20881;-67
2022/07/27 10:01:07;;;;;;;1.20;1.10;;;20.40;99.90;;;;;;4992995;28;20827;-67
2022/07/27 10:03:34;;;;;;;1.17;1.10;;;20.20;99.90;;;;;;4992610;28;20542;-67
2022/07/27 10:06:02;;;;;;;5.70;1.30;;;20.00;99.90;;;;;;4993197;28;20462;-67
2022/07/27 10:08:29;;;;;;;3.90;1.10;;;19.90;99.90;;;;;;4991190;28;20470;-68
2022/07/27 10:10:57;;;;;;;3.63;1.37;;;19.70;99.90;;;;;;4993038;28;20870;-67
2022/07/27 10:13:24;;;;;;;1.07;0.97;;;19.50;99.90;;;;;;4986960;28;20554;-67
2022/07/27 10:15:51;;;;;;;1.07;0.77;;;19.50;99.90;;;;;;4992714;28;20987;-67
2022/07/27 10:18:27;;;;;;;3.07;1.00;;;19.50;99.90;;;;;;4991357;28;20473;-67
2022/07/27 10:20:54;;;;;;;2.43;1.37;;;19.50;99.90;;;;;;4991398;28;20600;-68
2022/07/27 10:23:26;;;;;;;2.03;1.80;;;19.50;99.90;;;;;;5004550;23;21027;-68
2022/07/27 10:26:26;;;;;;;2.00;1.27;;;19.80;99.90;;;;;;4992828;28;20540;-67
2022/07/27 10:28:56;;;;;;;1.47;1.37;;;19.80;99.90;;;;;;4990468;28;20470;-68
2022/07/27 10:31:24;;;;;;;1.23;1.17;;;19.60;99.90;;;;;;4992696;28;20923;-68
2022/07/27 10:33:54;;;;;;;2.00;1.20;;;19.50;99.90;;;;;;4991685;28;20483;-68
2022/07/27 10:36:51;;;;;;;1.30;1.10;;;19.60;99.90;;;;;;4992271;28;20470;-68
2022/07/27 10:39:38;;;;;;;3.10;1.43;;;20.00;99.90;;;;;;4991663;28;20484;-68
2022/07/27 10:42:24;;;;;;;4.70;1.20;;;20.10;99.90;;;;;;4989918;28;20497;-68
2022/07/27 10:45:02;;;;;;;4.13;1.33;;;20.10;99.90;;;;;;4984408;28;20959;-68
2022/07/27 10:47:32;;;;;;;1.30;1.30;;;20.00;99.90;;;;;;4987845;28;20937;-68
2022/07/27 10:50:31;;;;;;;1.00;1.00;;;20.10;99.90;;;;;;4990789;28;20554;-69
2022/07/27 10:53:07;;;;;;;1.77;0.80;;;20.40;99.90;;;;;;4983137;28;20529;-68
2022/07/27 10:55:48;;;;;;;1.27;1.27;;;20.50;99.90;;;;;;4991507;28;20469;-69
2022/07/27 10:58:51;;;;;;;1.20;1.10;;;20.50;99.90;;;;;;4990574;28;20471;-69
2022/07/27 11:01:19;;;;;;;5.23;1.37;;;20.70;99.90;;;;;;4988565;28;20467;-69
2022/07/27 11:03:52;;;;;;;2.17;1.13;;;20.90;99.90;;;;;;4991236;28;20522;-68
2022/07/27 11:06:25;;;;;;;1.10;1.10;;;20.90;99.90;;;;;;4989239;28;20526;-68
2022/07/27 11:08:52;;;;;;;1.50;1.07;;;20.80;99.90;;;;;;4989718;28;20475;-68
2022/07/27 11:11:21;;;;;;;2.33;1.20;;;20.80;99.90;;;;;;4991129;28;21150;-68
2022/07/27 11:13:52;;;;;;;1.90;1.40;;;20.60;99.90;;;;;;4990626;28;20474;-68
2022/07/27 11:16:18;;;;;;;3.03;1.47;;;20.60;99.90;;;;;;4990495;28;20474;-68
2022/07/27 11:18:54;;;;;;;1.20;1.10;;;20.50;99.90;;;;;;4989210;28;20467;-69
2022/07/27 11:21:23;;;;;;;2.40;1.00;;;20.50;99.90;;;;;;4990704;28;20645;-68
2022/07/27 11:23:52;;;;;;;1.60;1.50;;;20.30;99.90;;;;;;4988208;28;20522;-68
2022/07/27 11:26:20;;;;;;;7.60;1.23;;;20.30;99.90;;;;;;4986209;28;20506;-68
2022/07/27 11:28:47;;;;;;;1.80;1.40;;;20.40;99.90;;;;;;4986503;28;20823;-69
2022/07/27 11:31:15;;;;;;;1.70;1.40;;;20.60;99.90;;;;;;4990981;28;20464;-68
2022/07/27 11:33:54;;;;;;;1.73;1.10;;;20.70;99.90;;;;;;4986202;28;20495;-68
2022/07/27 11:36:22;;;;;;;1.77;1.70;;;20.90;99.90;;;;;;4984891;28;20552;-68
2022/07/27 11:38:51;;;;;;;1.60;0.70;;;21.00;99.90;;;;;;4989224;28;20468;-68
2022/07/27 11:41:22;;;;;;;3.10;1.23;;;21.10;99.90;;;;;;4989782;28;20467;-68
2022/07/27 11:43:48;;;;;;;0.90;0.87;;;21.10;99.90;;;;;;4986841;28;20472;-68
2022/07/27 11:46:21;;;;;;;3.33;1.50;;;21.00;99.90;;;;;;4988795;28;20846;-68
2022/07/27 11:48:54;;;;;;;1.27;1.17;;;21.00;99.90;;;;;;4989023;28;20468;-69
2022/07/27 11:51:21;;;;;;;4.20;1.83;;;20.90;99.90;;;;;;4989433;28;20836;-69
2022/07/27 11:53:48;;;;;;;1.30;1.20;;;20.90;99.90;;;;;;4990121;28;20817;-68
2022/07/27 11:56:22;;;;;;;1.13;1.10;;;20.80;99.90;;;;;;4988581;28;20479;-69
2022/07/27 11:59:00;;;;;;;1.47;0.93;;;20.80;99.90;;;;;;4989258;28;20561;-68
2022/07/27 12:01:30;;;;;;;1.83;1.33;;;20.80;99.90;;;;;;4990044;28;20463;-68
2022/07/27 12:04:17;;;;;;;5.20;0.97;;;20.90;99.90;;;;;;4989544;28;20474;-68
2022/07/27 12:06:45;;;;;;;1.27;1.20;;;20.90;99.90;;;;;;4986026;28;20475;-68
2022/07/27 12:09:15;;;;;;;1.40;1.30;;;20.80;99.90;;;;;;4988746;28;20472;-69
2022/07/27 12:11:57;;;;;;;1.47;1.00;;;20.80;99.90;;;;;;4988658;28;20490;-68
2022/07/27 12:14:28;;;;;;;1.07;0.97;;;20.90;99.90;;;;;;4986864;28;20828;-68
2022/07/27 12:17:09;;;;;;;2.90;1.23;;;20.80;99.90;;;;;;4983670;28;20507;-68
2022/07/27 12:19:36;;;;;;;1.10;1.10;;;20.60;99.90;;;;;;4987817;28;21084;-68
2022/07/27 12:22:04;;;;;;;2.10;0.90;;;20.70;99.90;;;;;;4986915;28;20520;-68
2022/07/27 12:24:33;;;;;;;1.60;1.23;;;20.80;99.90;;;;;;4988334;28;20494;-68
2022/07/27 12:27:08;;;;;;;2.33;1.07;;;20.90;99.90;;;;;;4986838;28;20906;-69
2022/07/27 12:29:57;;;;;;;3.80;1.10;;;21.00;99.90;;;;;;4986079;28;20487;-68
2022/07/27 12:32:26;;;;;;;2.23;0.90;;;20.90;99.90;;;;;;4989386;28;20490;-68
2022/07/27 12:34:53;;;;;;;2.30;1.00;;;20.90;99.90;;;;;;4987780;28;20928;-68
2022/07/27 12:37:20;;;;;;;2.00;1.00;;;21.00;99.90;;;;;;4987903;28;21155;-67
2022/07/27 12:39:47;;;;;;;3.13;1.30;;;21.10;99.90;;;;;;4985298;28;20464;-67
2022/07/27 12:42:14;;;;;;;1.27;1.10;;;21.20;99.90;;;;;;4986239;28;20503;-68
2022/07/27 12:44:43;;;;;;;1.43;1.13;;;21.20;99.90;;;;;;4988056;28;21070;-68
2022/07/27 12:50:07;;;;;;;1.63;1.20;;;21.20;99.90;;;;;;4986494;28;20458;-68
2022/07/27 12:52:36;;;;;;;3.37;1.57;;;21.00;99.00;;;;;;4987202;28;20494;-68
2022/07/27 12:55:03;;;;;;;0.80;0.80;;;21.10;99.20;;;;;;4988248;28;20467;-68
2022/07/27 12:57:30;;;;;;;4.20;1.10;;;21.10;98.60;;;;;;4990666;28;20467;-68
2022/07/27 12:59:57;;;;;;;3.10;1.20;;;21.20;98.90;;;;;;4989852;28;20491;-68
2022/07/27 13:02:24;;;;;;;5.93;1.10;;;21.30;98.60;;;;;;4981316;28;20553;-69
2022/07/27 13:04:50;;;;;;;2.93;0.97;;;21.40;97.80;;;;;;4988806;28;20492;-69
2022/07/27 13:07:19;;;;;;;1.80;1.00;;;21.50;98.10;;;;;;4980242;28;20903;-69
2022/07/27 13:09:46;;;;;;;0.80;0.80;;;21.60;98.30;;;;;;4987579;28;20476;-68
2022/07/27 13:12:14;;;;;;;1.20;1.10;;;21.60;98.50;;;;;;4987555;28;20498;-69
2022/07/27 13:14:40;;;;;;;2.43;1.03;;;21.40;98.20;;;;;;4989207;28;20464;-69
2022/07/27 13:17:07;;;;;;;1.20;1.10;;;21.00;97.10;;;;;;4987588;28;20475;-69
2022/07/27 13:19:34;;;;;;;2.10;0.90;;;21.00;97.40;;;;;;4990038;28;20462;-69
2022/07/27 13:22:01;;;;;;;1.17;0.73;;;21.10;97.20;;;;;;4988042;28;21072;-70
2022/07/27 13:24:29;;;;;;;2.10;0.90;;;21.30;96.40;;;;;;4989185;28;21022;-68
2022/07/27 13:26:55;;;;;;;1.53;1.30;;;21.50;96.00;;;;;;4987756;28;20468;-69
2022/07/27 13:29:22;;;;;;;1.33;1.10;;;21.40;95.30;;;;;;4991878;28;20478;-68
2022/07/27 13:31:49;;;;;;;2.17;1.20;;;21.30;95.50;;;;;;4991437;28;20483;-69
2022/07/27 13:34:15;;;;;;;1.33;1.30;;;21.10;95.80;;;;;;4991048;28;20471;-68
2022/07/27 13:36:42;;;;;;;2.83;0.90;;;21.00;96.20;;;;;;4991325;28;20473;-69
2022/07/27 13:39:09;;;;;;;0.73;0.70;;;21.00;96.90;;;;;;4995747;28;20470;-70
2022/07/27 13:41:39;;;;;;;1.10;1.10;;;21.10;97.70;;;;;;4990441;28;20497;-68
2022/07/27 13:44:06;;;;;;;0.83;0.80;;;21.00;98.20;;;;;;4988090;28;20557;-68
2022/07/27 13:46:33;;;;;;;1.33;1.27;;;20.80;98.10;;;;;;4991660;28;20490;-68
2022/07/27 13:49:00;;;;;;;0.97;0.60;;;20.70;98.40;;;;;;4990627;28;20482;-72
2022/07/27 13:51:27;;;;;;;2.23;0.87;;;20.60;97.80;;;;;;4992930;28;20561;-68
2022/07/27 13:53:54;;;;;;;1.13;1.03;;;20.80;97.70;;;;;;4992054;28;20955;-70
2022/07/27 13:56:20;;;;;;;1.00;1.00;;;21.00;98.30;;;;;;4992861;28;20475;-68
2022/07/27 13:58:48;;;;;;;2.00;1.90;;;21.00;97.60;;;;;;4993118;28;20500;-67
2022/07/27 14:01:15;;;;;;;4.37;1.30;;;20.90;98.20;;;;;;4993053;28;20462;-67
2022/07/27 14:03:42;;;;;;;3.67;1.10;;;20.90;98.50;;;;;;4990523;28;20498;-67
2022/07/27 14:06:08;;;;;;;2.23;1.00;;;21.20;99.40;;;;;;4992670;28;20826;-69
2022/07/27 14:08:35;;;;;;;1.13;0.80;;;21.30;98.60;;;;;;4992874;28;20525;-68
2022/07/27 14:11:02;;;;;;;1.03;1.00;;;21.20;98.40;;;;;;4992730;28;20479;-67
2022/07/27 14:13:31;;;;;;;1.37;1.30;;;21.10;97.80;;;;;;4990469;28;20494;-68
2022/07/27 14:16:00;;;;;;;1.13;1.00;;;21.10;97.70;;;;;;4987238;28;20462;-68
2022/07/27 14:18:30;;;;;;;2.07;1.10;;;21.00;96.90;;;;;;4993145;28;20474;-68
2022/07/27 14:20:59;;;;;;;1.20;0.80;;;21.20;97.00;;;;;;4992099;28;20556;-67
2022/07/27 14:23:27;;;;;;;1.13;0.70;;;21.20;95.10;;;;;;4990952;28;20557;-67
2022/07/27 14:25:55;;;;;;;0.90;0.90;;;21.50;95.90;;;;;;4992203;28;20488;-68
2022/07/27 14:28:23;;;;;;;1.80;1.17;;;21.80;95.60;;;;;;4992522;28;20473;-67
2022/07/27 14:30:50;;;;;;;1.53;1.43;;;21.90;96.20;;;;;;4985887;28;20469;-67
2022/07/27 14:33:19;;;;;;;2.30;1.10;;;21.80;96.90;;;;;;4987767;28;20488;-67
2022/07/27 14:35:46;;;;;;;1.10;1.00;;;21.60;97.20;;;;;;4992279;28;20461;-70
2022/07/27 14:38:14;;;;;;;1.60;1.13;;;21.60;97.30;;;;;;4992443;28;20468;-69
2022/07/27 14:40:41;;;;;;;3.67;1.40;;;21.50;97.10;;;;;;4992672;28;20462;-70
2022/07/27 14:43:09;;;;;;;1.73;1.20;;;21.40;97.30;;;;;;4990657;28;20529;-70
2022/07/27 14:45:36;;;;;;;1.10;1.00;;;21.40;98.10;;;;;;4986963;28;20486;-69
2022/07/27 14:48:02;;;;;;;2.40;1.43;;;21.30;98.00;;;;;;4983986;28;20463;-69
2022/07/27 14:50:31;;;;;;;1.27;1.20;;;21.10;98.70;;;;;;4991569;28;20499;-69
2022/07/27 14:52:57;;;;;;;1.27;0.90;;;21.00;99.10;;;;;;4991027;28;21014;-70
2022/07/27 14:55:24;;;;;;;3.87;1.03;;;20.90;99.40;;;;;;4990169;28;20593;-69
2022/07/27 14:57:51;;;;;;;2.80;1.60;;;20.90;99.90;;;;;;4993020;28;20511;-69
2022/07/27 15:00:18;;;;;;;2.37;1.40;;;21.00;99.80;;;;;;4991295;28;20506;-69
2022/07/27 15:02:45;;;;;;;1.07;0.97;;;21.10;99.90;;;;;;4992052;28;20567;-70
2022/07/27 15:05:13;;;;;;;2.80;1.53;;;21.20;99.80;;;;;;4990277;28;20494;-69
2022/07/27 15:07:41;;;;;;;2.10;1.10;;;21.30;99.90;;;;;;4992287;28;20477;-69
2022/07/27 15:10:10;;;;;;;2.30;1.10;;;21.30;99.50;;;;;;4991824;28;20935;-69
2022/07/27 15:12:37;;;;;;;3.53;1.23;;;21.30;99.90;;;;;;4991928;28;20494;-70
2022/07/27 15:15:05;;;;;;;1.20;1.20;;;21.30;99.90;;;;;;4990109;28;20568;-67
2022/07/27 15:17:32;;;;;;;1.53;1.00;;;21.30;99.90;;;;;;4991193;28;20468;-69
2022/07/27 15:19:59;;;;;;;1.50;1.40;;;21.20;99.60;;;;;;4992862;28;20503;-67
2022/07/27 15:22:26;;;;;;;1.90;1.53;;;21.20;99.90;;;;;;4994242;28;20491;-69
2022/07/27 15:24:54;;;;;;;1.90;1.33;;;21.20;99.90;;;;;;4990139;28;20466;-69
2022/07/27 15:27:20;;;;;;;3.63;1.50;;;21.10;99.60;;;;;;4993283;28;20470;-68
2022/07/27 15:29:47;;;;;;;1.23;1.00;;;21.10;99.80;;;;;;4989085;28;20470;-68
2022/07/27 15:32:14;;;;;;;1.50;1.40;;;21.00;99.90;;;;;;4988424;28;20482;-69
2022/07/27 15:34:41;;;;;;;1.50;1.30;;;21.20;99.90;;;;;;4983208;28;20502;-69
2022/07/27 15:37:08;;;;;;;1.97;1.60;;;21.10;99.50;;;;;;4988066;28;20951;-68
2022/07/27 15:39:36;;;;;;;1.60;1.50;;;20.80;99.90;;;;;;4986627;28;20856;-68
2022/07/27 15:42:05;;;;;;;1.10;1.00;;;20.70;99.90;;;;;;4986563;28;20570;-68
2022/07/27 15:44:33;;;;;;;1.80;0.97;;;20.70;99.90;;;;;;4988039;28;20475;-68
2022/07/27 15:47:01;;;;;;;1.63;1.60;;;20.60;99.90;;;;;;4986810;28;20555;-68
2022/07/27 15:49:27;;;;;;;1.47;1.47;;;20.50;99.90;;;;;;4985845;28;20497;-68
2022/07/27 15:51:54;;;;;;;2.30;1.90;;;20.50;99.90;;;;;;4982884;28;20551;-68
2022/07/27 15:54:22;;;;;;;6.33;1.53;;;20.40;99.90;;;;;;4987253;28;20467;-67
2022/07/27 15:56:49;;;;;;;1.70;1.20;;;20.40;99.90;;;;;;4990363;28;20470;-68
2022/07/27 15:59:18;;;;;;;1.37;1.27;;;20.50;99.90;;;;;;4989467;28;20482;-69
2022/07/27 16:01:45;;;;;;;2.70;1.80;;;20.60;99.90;;;;;;4991207;28;20486;-68
2022/07/27 16:04:12;;;;;;;2.63;1.20;;;20.60;99.90;;;;;;4988425;28;20470;-69
2022/07/27 16:06:39;;;;;;;3.90;1.30;;;20.60;99.90;;;;;;4990745;28;20489;-69
2022/07/27 16:09:07;;;;;;;1.83;1.07;;;20.70;99.90;;;;;;4988731;28;20476;-69
2022/07/27 16:11:34;;;;;;;2.20;1.73;;;20.80;99.90;;;;;;4989054;28;21760;-68
2022/07/27 16:14:01;;;;;;;1.60;1.10;;;20.90;99.90;;;;;;4985007;28;20529;-68
2022/07/27 16:16:31;;;;;;;3.63;1.80;;;21.00;99.90;;;;;;4990758;28;20466;-68
2022/07/27 16:19:00;;;;;;;3.20;1.23;;;21.00;99.90;;;;;;4989677;28;20489;-68
2022/07/27 16:21:28;;;;;;;2.10;1.50;;;21.10;99.90;;;;;;4990035;28;20470;-68
2022/07/27 16:23:56;;;;;;;1.53;1.07;;;21.10;99.90;;;;;;5005321;23;20446;-66
2022/07/27 16:26:23;;;;;;;3.77;1.23;;;21.10;99.90;;;;;;4950362;29;20830;-66
2022/07/27 16:28:51;;;;;;;1.30;1.20;;;21.10;99.90;;;;;;4950582;28;20472;-67
2022/07/27 16:31:19;;;;;;;2.67;1.73;;;21.00;99.90;;;;;;4950405;29;20475;-66
2022/07/27 16:33:50;;;;;;;3.83;1.00;;;21.00;99.90;;;;;;4950374;28;20576;-67
2022/07/27 16:36:18;;;;;;;2.33;1.00;;;21.00;99.90;;;;;;4945595;29;20972;-66
2022/07/27 16:38:47;;;;;;;2.87;1.20;;;21.00;99.90;;;;;;4948090;28;20508;-67
2022/07/27 16:41:16;;;;;;;1.70;1.23;;;21.00;99.90;;;;;;4947097;28;20472;-67
2022/07/27 16:43:42;;;;;;;1.07;0.97;;;21.10;99.90;;;;;;4946090;28;20980;-67
2022/07/27 16:46:10;;;;;;;3.40;1.60;;;20.90;99.90;;;;;;4949356;29;20573;-67
2022/07/27 16:48:38;;;;;;;2.70;1.20;;;20.80;99.90;;;;;;4948286;28;20539;-67
2022/07/27 16:51:09;;;;;;;1.70;1.27;;;20.70;99.90;;;;;;4949265;29;20475;-67
2022/07/27 16:53:36;;;;;;;1.67;0.90;;;20.80;99.90;;;;;;4951051;28;21035;-67
2022/07/27 16:56:03;;;;;;;4.87;1.23;;;20.90;99.90;;;;;;4948872;28;20556;-67
2022/07/27 16:58:30;;;;;;;0.90;0.90;;;21.00;99.90;;;;;;4951949;28;20504;-67